Rio Masma — EA8654 — position and weather

sailwx.info

Track history (hours):
 
Tides and Currents Weather Stations Pressure Air Temp Water Temp Dewpoint Dewpoint Depression Visibility Wind Speed Wind Dir Waves Ship Positions

Rio Masma

Last reported at 2018-Jul-21 05:07 UTC. Time now 2018-Jul-21 11:14 UTC.
Position N 43°41' W 003°35'.

Length 20 m.

Type: Fishing. MMSI: 224020460.

Date/timePositionNaut miles runAvg speedWind from/ knotsBaromVisibWave heightAir tempDewpointWater temp
2018-Jul-21 05:07N 43°41' W 003°35'1 7.3
2018-Jul-21 05:01N 43°41' W 003°36'4 4.2
2018-Jul-21 04:10N 43°40' W 003°31'2 6.5
2018-Jul-21 03:53N 43°39' W 003°29'2 6.7
2018-Jul-21 03:30N 43°38' W 003°26'3 6.2
2018-Jul-21 03:00N 43°35' W 003°25'4 7.3
2018-Jul-21 02:30N 43°31' W 003°25'4 7.2
2018-Jul-21 01:56N 43°27' W 003°25'3 0.1
2018-Jul-19 17:03N 43°25' W 003°27'0 8.5
2018-Jul-19 17:00N 43°26' W 003°27'3 5.4
2018-Jul-19 16:25N 43°28' W 003°25'3 7.1
2018-Jul-19 16:00N 43°31' W 003°23'4 7.1
2018-Jul-19 15:30N 43°34' W 003°22'5 6.8
2018-Jul-19 14:47N 43°39' W 003°22'4 5.0
2018-Jul-19 14:00N 43°36' W 003°20'4 7.5
2018-Jul-19 13:30N 43°36' W 003°25'4 7.4
2018-Jul-19 13:00N 43°37' W 003°30'2 4.8
2018-Jul-19 12:30N 43°38' W 003°33'8 0.9
2018-Jul-19 04:12N 43°43' W 003°41'0 0.9
2018-Jul-19 03:58N 43°43' W 003°41'10 0.6
2018-Jul-18 09:19N 43°47' W 003°28'1 1.6
2018-Jul-18 08:59N 43°47' W 003°27'4 6.6
2018-Jul-18 08:23N 43°43' W 003°26'3 7.1
2018-Jul-18 08:00N 43°41' W 003°25'4 7.2
2018-Jul-18 07:30N 43°37' W 003°25'4 7.1
2018-Jul-18 07:00N 43°34' W 003°24'4 7.1
2018-Jul-18 06:30N 43°30' W 003°25'4 7.5
2018-Jul-18 06:00N 43°26' W 003°26'2 0.0
2018-Jul-16 14:46N 43°25' W 003°27'1 5.5
2018-Jul-16 14:30N 43°26' W 003°26'2 4.8
2018-Jul-16 14:00N 43°29' W 003°26'4 7.6
2018-Jul-16 13:30N 43°32' W 003°29'4 8.1
2018-Jul-16 13:00N 43°35' W 003°32'4 7.9
2018-Jul-16 12:31N 43°39' W 003°33'49 3.0
2018-Jul-15 20:06N 44°25' W 003°54'1 4.2
2018-Jul-15 19:46N 44°26' W 003°55'7 1.5
2018-Jul-15 15:19N 44°33' W 003°56'4 2.2
2018-Jul-15 13:31N 44°36' W 003°52'0 4.3
2018-Jul-15 13:30N 44°36' W 003°52'2 1.0
2018-Jul-15 11:32N 44°34' W 003°51'1 5.6
2018-Jul-15 11:18N 44°33' W 003°52'1 3.9
2018-Jul-15 10:59N 44°34' W 003°52'1 1.4
2018-Jul-15 10:30N 44°34' W 003°52'0 0.8
2018-Jul-15 09:59N 44°34' W 003°51'2 3.6
2018-Jul-15 09:27N 44°34' W 003°49'2 4.8
2018-Jul-15 08:59N 44°34' W 003°52'0 0.4
2018-Jul-15 08:30N 44°34' W 003°52'1 1.1
2018-Jul-15 08:00N 44°34' W 003°52'1 1.2
2018-Jul-15 07:27N 44°34' W 003°52'7 1.4
2018-Jul-15 02:20N 44°37' W 004°01'0 0.3
2018-Jul-15 01:57N 44°37' W 004°00'31 3.9
2018-Jul-14 17:58N 45°07' W 004°15'3 0.8
2018-Jul-14 14:56N 45°04' W 004°13'5 4.2
2018-Jul-14 13:49N 45°09' W 004°14'2 4.5
2018-Jul-14 13:17N 45°07' W 004°15'3 5.3
2018-Jul-14 12:44N 45°07' W 004°11'1 4.9
2018-Jul-14 12:31N 45°06' W 004°12'16 1.3
2018-Jul-14 00:58N 45°21' W 004°18'1 0.9
2018-Jul-14 00:14N 45°21' W 004°18'0 1.0
2018-Jul-13 23:59N 45°21' W 004°17'1 1.1
2018-Jul-13 23:29N 45°21' W 004°17'1 1.1
2018-Jul-13 22:53N 45°22' W 004°16'1 1.3
2018-Jul-13 22:21N 45°22' W 004°15'0 1.4
2018-Jul-13 22:01N 45°22' W 004°14'1 0.7
2018-Jul-13 20:58N 45°23' W 004°13'3 6.3
2018-Jul-13 20:30N 45°20' W 004°16'8 5.1
2018-Jul-13 18:56N 45°16' W 004°26'6 2.4
2018-Jul-13 16:31N 45°17' W 004°34'2 3.8
2018-Jul-13 16:01N 45°19' W 004°34'0 0.8
2018-Jul-13 15:31N 45°19' W 004°35'2 2.0
2018-Jul-13 14:39N 45°20' W 004°35'1 4.9
2018-Jul-13 14:31N 45°20' W 004°34'105 3.5
2018-Jul-12 08:50N 44°02' W 002°57'1 1.9
2018-Jul-12 08:30N 44°01' W 002°56'14 2.0
2018-Jul-12 01:45N 44°12' W 003°07'0 0.1
2018-Jul-12 01:30N 44°12' W 003°07'0 0.1
2018-Jul-12 00:57N 44°12' W 003°07'0 0.1
2018-Jul-11 23:33N 44°12' W 003°07'0 0.2
2018-Jul-11 23:11N 44°12' W 003°07'0 0.3
2018-Jul-11 23:00N 44°12' W 003°07'0 0.4
2018-Jul-11 22:30N 44°12' W 003°06'1 0.4
2018-Jul-11 19:46N 44°11' W 003°07'0 1.8
2018-Jul-11 19:30N 44°11' W 003°07'0 1.0
2018-Jul-11 19:00N 44°10' W 003°07'1 1.2
2018-Jul-11 18:30N 44°10' W 003°08'0 0.5
2018-Jul-11 17:35N 44°10' W 003°07'2 5.3
2018-Jul-11 17:10N 44°12' W 003°07'1 3.4
2018-Jul-11 16:56N 44°13' W 003°08'1 3.1
2018-Jul-11 16:30N 44°12' W 003°09'2 4.8
2018-Jul-11 16:00N 44°11' W 003°07'2 3.2
2018-Jul-11 15:30N 44°12' W 003°07'1 0.6
2018-Jul-11 14:21N 44°12' W 003°07'2 4.4
2018-Jul-11 14:00N 44°11' W 003°08'3 5.7
2018-Jul-11 13:30N 44°09' W 003°10'2 1.8
2018-Jul-11 12:15N 44°07' W 003°12'1 2.0
2018-Jul-11 11:58N 44°07' W 003°12'1 1.8
2018-Jul-11 11:15N 44°06' W 003°12'  
Track history (hours):
 
Tides and Currents Weather Stations Pressure Air Temp Water Temp Dewpoint Dewpoint Depression Visibility Wind Speed Wind Dir Waves Ship Positions

Rio Masma

Last reported at 2018-Jul-21 05:07 UTC. Time now 2018-Jul-21 11:14 UTC.
Position N 43°41' W 003°35'.

Length 20 m.

Type: Fishing. MMSI: 224020460.

Date/timePositionNaut miles runAvg speedWind from/ knotsBaromVisibWave heightAir tempDewpointWater temp
2018-Jul-21 05:07N 43°41' W 003°35'1 7.3
2018-Jul-21 05:01N 43°41' W 003°36'4 4.2
2018-Jul-21 04:10N 43°40' W 003°31'2 6.5
2018-Jul-21 03:53N 43°39' W 003°29'2 6.7
2018-Jul-21 03:30N 43°38' W 003°26'3 6.2
2018-Jul-21 03:00N 43°35' W 003°25'4 7.3
2018-Jul-21 02:30N 43°31' W 003°25'4 7.2
2018-Jul-21 01:56N 43°27' W 003°25'3 0.1
2018-Jul-19 17:03N 43°25' W 003°27'0 8.5
2018-Jul-19 17:00N 43°26' W 003°27'3 5.4
2018-Jul-19 16:25N 43°28' W 003°25'3 7.1
2018-Jul-19 16:00N 43°31' W 003°23'4 7.1
2018-Jul-19 15:30N 43°34' W 003°22'5 6.8
2018-Jul-19 14:47N 43°39' W 003°22'4 5.0
2018-Jul-19 14:00N 43°36' W 003°20'4 7.5
2018-Jul-19 13:30N 43°36' W 003°25'4 7.4
2018-Jul-19 13:00N 43°37' W 003°30'2 4.8
2018-Jul-19 12:30N 43°38' W 003°33'8 0.9
2018-Jul-19 04:12N 43°43' W 003°41'0 0.9
2018-Jul-19 03:58N 43°43' W 003°41'10 0.6
2018-Jul-18 09:19N 43°47' W 003°28'1 1.6
2018-Jul-18 08:59N 43°47' W 003°27'4 6.6
2018-Jul-18 08:23N 43°43' W 003°26'3 7.1
2018-Jul-18 08:00N 43°41' W 003°25'4 7.2
2018-Jul-18 07:30N 43°37' W 003°25'4 7.1
2018-Jul-18 07:00N 43°34' W 003°24'4 7.1
2018-Jul-18 06:30N 43°30' W 003°25'4 7.5
2018-Jul-18 06:00N 43°26' W 003°26'2 0.0
2018-Jul-16 14:46N 43°25' W 003°27'1 5.5
2018-Jul-16 14:30N 43°26' W 003°26'2 4.8
2018-Jul-16 14:00N 43°29' W 003°26'4 7.6
2018-Jul-16 13:30N 43°32' W 003°29'4 8.1
2018-Jul-16 13:00N 43°35' W 003°32'4 7.9
2018-Jul-16 12:31N 43°39' W 003°33'49 3.0
2018-Jul-15 20:06N 44°25' W 003°54'1 4.2
2018-Jul-15 19:46N 44°26' W 003°55'7 1.5
2018-Jul-15 15:19N 44°33' W 003°56'4 2.2
2018-Jul-15 13:31N 44°36' W 003°52'0 4.3
2018-Jul-15 13:30N 44°36' W 003°52'2 1.0
2018-Jul-15 11:32N 44°34' W 003°51'1 5.6
2018-Jul-15 11:18N 44°33' W 003°52'1 3.9
2018-Jul-15 10:59N 44°34' W 003°52'1 1.4
2018-Jul-15 10:30N 44°34' W 003°52'0 0.8
2018-Jul-15 09:59N 44°34' W 003°51'2 3.6
2018-Jul-15 09:27N 44°34' W 003°49'2 4.8
2018-Jul-15 08:59N 44°34' W 003°52'0 0.4
2018-Jul-15 08:30N 44°34' W 003°52'1 1.1
2018-Jul-15 08:00N 44°34' W 003°52'1 1.2
2018-Jul-15 07:27N 44°34' W 003°52'7 1.4
2018-Jul-15 02:20N 44°37' W 004°01'0 0.3
2018-Jul-15 01:57N 44°37' W 004°00'31 3.9
2018-Jul-14 17:58N 45°07' W 004°15'3 0.8
2018-Jul-14 14:56N 45°04' W 004°13'5 4.2
2018-Jul-14 13:49N 45°09' W 004°14'2 4.5
2018-Jul-14 13:17N 45°07' W 004°15'3 5.3
2018-Jul-14 12:44N 45°07' W 004°11'1 4.9
2018-Jul-14 12:31N 45°06' W 004°12'16 1.3
2018-Jul-14 00:58N 45°21' W 004°18'1 0.9
2018-Jul-14 00:14N 45°21' W 004°18'0 1.0
2018-Jul-13 23:59N 45°21' W 004°17'1 1.1
2018-Jul-13 23:29N 45°21' W 004°17'1 1.1
2018-Jul-13 22:53N 45°22' W 004°16'1 1.3
2018-Jul-13 22:21N 45°22' W 004°15'0 1.4
2018-Jul-13 22:01N 45°22' W 004°14'1 0.7
2018-Jul-13 20:58N 45°23' W 004°13'3 6.3
2018-Jul-13 20:30N 45°20' W 004°16'8 5.1
2018-Jul-13 18:56N 45°16' W 004°26'6 2.4
2018-Jul-13 16:31N 45°17' W 004°34'2 3.8
2018-Jul-13 16:01N 45°19' W 004°34'0 0.8
2018-Jul-13 15:31N 45°19' W 004°35'2 2.0
2018-Jul-13 14:39N 45°20' W 004°35'1 4.9
2018-Jul-13 14:31N 45°20' W 004°34'105 3.5
2018-Jul-12 08:50N 44°02' W 002°57'1 1.9
2018-Jul-12 08:30N 44°01' W 002°56'14 2.0
2018-Jul-12 01:45N 44°12' W 003°07'0 0.1
2018-Jul-12 01:30N 44°12' W 003°07'0 0.1
2018-Jul-12 00:57N 44°12' W 003°07'0 0.1
2018-Jul-11 23:33N 44°12' W 003°07'0 0.2
2018-Jul-11 23:11N 44°12' W 003°07'0 0.3
2018-Jul-11 23:00N 44°12' W 003°07'0 0.4
2018-Jul-11 22:30N 44°12' W 003°06'1 0.4
2018-Jul-11 19:46N 44°11' W 003°07'0 1.8
2018-Jul-11 19:30N 44°11' W 003°07'0 1.0
2018-Jul-11 19:00N 44°10' W 003°07'1 1.2
2018-Jul-11 18:30N 44°10' W 003°08'0 0.5
2018-Jul-11 17:35N 44°10' W 003°07'2 5.3
2018-Jul-11 17:10N 44°12' W 003°07'1 3.4
2018-Jul-11 16:56N 44°13' W 003°08'1 3.1
2018-Jul-11 16:30N 44°12' W 003°09'2 4.8
2018-Jul-11 16:00N 44°11' W 003°07'2 3.2
2018-Jul-11 15:30N 44°12' W 003°07'1 0.6
2018-Jul-11 14:21N 44°12' W 003°07'2 4.4
2018-Jul-11 14:00N 44°11' W 003°08'3 5.7
2018-Jul-11 13:30N 44°09' W 003°10'2 1.8
2018-Jul-11 12:15N 44°07' W 003°12'1 2.0
2018-Jul-11 11:58N 44°07' W 003°12'1 1.8
2018-Jul-11 11:15N 44°06' W 003°12'  

Dump ship's entire track history